Time;durP1;ratioP1;P1;durP2;ratioP2;P2;SDS_P1;SDS_P2;PMS_P1;PMS_P2;Temp;Humidity;BMP_temperature;BMP_pressure;BME280_temperature;BME280_humidity;BME280_pressure;Samples;Min_cycle;Max_cycle;Signal;HPM_P1;HPM_P2
2021/11/04 00:01:44;;;;;;;81.20;36.87;;;8.50;99.90;;;;;;5093176;28;20027;-82
2021/11/04 00:04:10;;;;;;;89.07;37.87;;;8.50;99.90;;;;;;5093424;28;20030;-82
2021/11/04 00:06:36;;;;;;;86.47;36.43;;;8.50;99.90;;;;;;5093507;28;20144;-83
2021/11/04 00:09:02;;;;;;;85.40;37.03;;;8.50;99.90;;;;;;5093978;28;20439;-81
2021/11/04 00:11:28;;;;;;;85.20;37.37;;;8.50;99.90;;;;;;5094575;28;20028;-82
2021/11/04 00:13:53;;;;;;;83.37;37.10;;;8.50;99.90;;;;;;5059414;28;20059;-82
2021/11/04 00:16:19;;;;;;;86.50;38.47;;;8.50;99.90;;;;;;5093561;28;20016;-83
2021/11/04 00:18:45;;;;;;;87.60;38.37;;;8.50;99.90;;;;;;5094322;28;20024;-82
2021/11/04 00:21:10;;;;;;;94.07;40.30;;;8.60;99.90;;;;;;5058592;28;20034;-82
2021/11/04 00:23:36;;;;;;;85.60;38.13;;;8.50;99.90;;;;;;5059235;28;20035;-82
2021/11/04 00:26:05;;;;;;;95.32;41.67;;;8.60;99.90;;;;;;5092820;28;20030;-82
2021/11/04 00:28:31;;;;;;;93.83;39.43;;;8.50;99.90;;;;;;5094035;28;20024;-82
2021/11/04 00:30:57;;;;;;;94.63;38.70;;;8.60;99.90;;;;;;5092345;28;20028;-82
2021/11/04 00:33:23;;;;;;;94.67;39.57;;;8.60;99.90;;;;;;5075787;28;20386;-82
2021/11/04 00:35:48;;;;;;;96.93;39.17;;;8.60;99.90;;;;;;5094011;28;20027;-82
2021/11/04 00:38:14;;;;;;;103.83;43.97;;;8.60;99.90;;;;;;5076790;28;20455;-82
2021/11/04 00:40:40;;;;;;;94.27;40.37;;;8.60;99.90;;;;;;5075159;28;20032;-82
2021/11/04 00:43:05;;;;;;;101.40;43.80;;;8.60;99.90;;;;;;5076056;28;20036;-81
2021/11/04 00:45:31;;;;;;;103.10;43.20;;;8.60;99.90;;;;;;5075618;28;20066;-82
2021/11/04 00:47:57;;;;;;;102.80;43.20;;;8.50;99.90;;;;;;5093859;28;20389;-83
2021/11/04 00:50:25;;;;;;;101.37;42.97;;;8.50;99.90;;;;;;5058611;28;20032;-82
2021/11/04 00:52:51;;;;;;;94.47;38.67;;;8.50;99.90;;;;;;5093590;28;20164;-82
2021/11/04 00:55:17;;;;;;;110.33;43.80;;;8.60;99.90;;;;;;5093598;28;20484;-82
2021/11/04 00:57:48;;;;;;;97.33;41.43;;;8.50;99.90;;;;;;5092348;28;20028;-82
2021/11/04 01:00:14;;;;;;;88.90;37.73;;;8.50;99.90;;;;;;5075014;28;20024;-82
2021/11/04 01:02:41;;;;;;;89.10;37.07;;;8.50;99.90;;;;;;5092434;28;20496;-82
2021/11/04 01:05:06;;;;;;;87.07;37.03;;;8.50;99.90;;;;;;5092420;28;20028;-82
2021/11/04 01:07:32;;;;;;;95.87;39.37;;;8.50;99.90;;;;;;5093465;28;20533;-82
2021/11/04 01:09:58;;;;;;;89.40;37.27;;;8.40;99.90;;;;;;5092981;28;20476;-83
2021/11/04 01:12:24;;;;;;;90.97;38.57;;;8.40;99.90;;;;;;5058670;28;20032;-82
2021/11/04 01:14:50;;;;;;;98.70;38.03;;;8.40;99.90;;;;;;5099780;22;20135;-84
2021/11/04 01:17:16;;;;;;;91.73;38.57;;;8.40;99.90;;;;;;5072834;28;20017;-85
2021/11/04 01:19:42;;;;;;;96.23;38.87;;;8.40;99.90;;;;;;5071980;28;20047;-84
2021/11/04 01:22:08;;;;;;;94.13;39.43;;;8.40;99.90;;;;;;5056118;28;20476;-83
2021/11/04 01:24:34;;;;;;;95.43;39.43;;;8.40;99.90;;;;;;5056017;28;20031;-84
2021/11/04 01:27:01;;;;;;;101.13;40.53;;;8.40;99.90;;;;;;5056287;28;20032;-84
2021/11/04 01:29:29;;;;;;;99.97;40.57;;;8.40;99.90;;;;;;5072593;28;20024;-84
2021/11/04 01:31:54;;;;;;;93.27;38.43;;;8.30;99.90;;;;;;5038918;28;20119;-84
2021/11/04 01:34:21;;;;;;;99.60;38.87;;;8.30;99.90;;;;;;5072200;28;20163;-84
2021/11/04 01:36:46;;;;;;;100.17;40.20;;;8.40;99.90;;;;;;5039563;28;20055;-83
2021/11/04 01:39:12;;;;;;;103.37;41.47;;;8.30;99.90;;;;;;5055154;28;20455;-84
2021/11/04 01:41:38;;;;;;;104.27;42.00;;;8.40;99.90;;;;;;5072166;28;20043;-83
2021/11/04 01:44:04;;;;;;;110.97;43.30;;;8.30;99.90;;;;;;5071929;28;20155;-84
2021/11/04 01:46:29;;;;;;;116.70;46.70;;;8.30;99.90;;;;;;5055254;28;20025;-84
2021/11/04 01:48:55;;;;;;;119.03;46.90;;;8.30;99.90;;;;;;5071602;28;20115;-84
2021/11/04 01:51:22;;;;;;;109.10;44.37;;;8.20;99.90;;;;;;5072060;28;20028;-83
2021/11/04 01:53:48;;;;;;;108.63;44.90;;;8.30;99.90;;;;;;5071915;28;20028;-84
2021/11/04 01:56:14;;;;;;;104.23;44.60;;;8.30;99.90;;;;;;5071907;28;20039;-84
2021/11/04 01:58:40;;;;;;;110.23;43.43;;;8.30;99.90;;;;;;5072181;28;20033;-84
2021/11/04 02:01:05;;;;;;;102.33;43.17;;;8.30;99.90;;;;;;5071838;28;20044;-83
2021/11/04 02:03:44;;;;;;;102.63;43.33;;;8.30;99.90;;;;;;5055281;28;20032;-83
2021/11/04 02:06:40;;;;;;;106.80;41.13;;;8.30;99.90;;;;;;5055252;28;20036;-84
2021/11/04 02:09:08;;;;;;;106.50;43.30;;;8.30;99.90;;;;;;5054823;28;20032;-84
2021/11/04 02:11:48;;;;;;;109.63;45.10;;;8.30;99.90;;;;;;5055061;28;20029;-83
2021/11/04 02:14:19;;;;;;;108.87;43.83;;;8.30;99.90;;;;;;5059615;28;20033;-84
2021/11/04 02:16:45;;;;;;;111.43;43.47;;;8.30;99.90;;;;;;5043024;28;20491;-84
2021/11/04 02:19:52;;;;;;;98.77;42.30;;;8.30;99.90;;;;;;5059242;28;20036;-84
2021/11/04 02:22:26;;;;;;;93.63;37.03;;;8.30;99.90;;;;;;5057982;28;20072;-84
2021/11/04 02:25:22;;;;;;;85.70;34.80;;;8.30;99.90;;;;;;5059441;28;20063;-85
2021/11/04 02:28:09;;;;;;;80.87;33.63;;;8.30;99.90;;;;;;5059470;28;20035;-84
2021/11/04 02:30:35;;;;;;;77.33;30.60;;;8.30;99.90;;;;;;5058406;28;20488;-84
2021/11/04 02:33:02;;;;;;;81.57;33.63;;;8.30;99.90;;;;;;5075997;28;20056;-83
2021/11/04 02:35:29;;;;;;;83.07;31.40;;;8.30;99.90;;;;;;5077301;28;20028;-84
2021/11/04 02:37:56;;;;;;;74.07;31.13;;;8.20;99.90;;;;;;5059345;28;20029;-85
2021/11/04 02:40:23;;;;;;;75.93;31.33;;;8.30;99.90;;;;;;5058693;28;20032;-83
2021/11/04 02:42:50;;;;;;;73.30;30.43;;;8.30;99.90;;;;;;5059169;28;20035;-84
2021/11/04 02:45:21;;;;;;;80.87;32.03;;;8.20;99.90;;;;;;5075741;28;20039;-83
2021/11/04 02:47:48;;;;;;;76.83;31.43;;;8.20;99.90;;;;;;5042581;28;20024;-84
2021/11/04 02:50:17;;;;;;;84.60;33.83;;;8.20;99.90;;;;;;5075162;28;20028;-84
2021/11/04 02:52:42;;;;;;;87.07;33.72;;;8.20;99.90;;;;;;5041897;28;20078;-84
2021/11/04 02:55:08;;;;;;;86.07;33.73;;;8.20;99.90;;;;;;5058773;28;20036;-85
2021/11/04 02:57:46;;;;;;;88.90;33.87;;;8.20;99.90;;;;;;5041838;28;20043;-85
2021/11/04 03:00:14;;;;;;;86.50;32.90;;;8.20;99.90;;;;;;5057972;28;20044;-84
2021/11/04 03:02:40;;;;;;;87.67;31.90;;;8.10;99.90;;;;;;5058722;28;20036;-85
2021/11/04 03:05:06;;;;;;;79.47;30.70;;;8.10;99.90;;;;;;5042332;28;20489;-85
2021/11/04 03:07:32;;;;;;;76.17;30.43;;;8.20;99.90;;;;;;5041732;28;20029;-85
2021/11/04 03:09:57;;;;;;;77.70;31.03;;;8.10;99.90;;;;;;5057955;28;20029;-85
2021/11/04 03:12:23;;;;;;;83.47;31.30;;;8.10;99.90;;;;;;5057835;28;20056;-85
2021/11/04 03:14:49;;;;;;;79.60;31.23;;;8.10;99.90;;;;;;5056897;28;20384;-84
2021/11/04 03:17:16;;;;;;;85.27;32.17;;;8.10;99.90;;;;;;5074460;28;20039;-84
2021/11/04 03:19:42;;;;;;;82.63;33.20;;;8.10;99.90;;;;;;5057625;28;20036;-85
2021/11/04 03:22:08;;;;;;;85.33;31.87;;;8.00;99.90;;;;;;5041613;28;20400;-84
2021/11/04 03:24:34;;;;;;;81.80;31.33;;;8.10;99.90;;;;;;5057156;28;20032;-84
2021/11/04 03:27:03;;;;;;;82.07;30.77;;;8.00;99.90;;;;;;5041816;28;20028;-84
2021/11/04 03:29:33;;;;;;;86.47;32.47;;;8.00;99.90;;;;;;5057512;28;20035;-84
2021/11/04 03:32:06;;;;;;;83.90;31.73;;;8.00;99.90;;;;;;5058309;28;20089;-85
2021/11/04 03:34:34;;;;;;;84.90;32.07;;;8.00;99.90;;;;;;5041600;28;20028;-85
2021/11/04 03:37:02;;;;;;;83.57;31.97;;;8.00;99.90;;;;;;5058081;28;20082;-85
2021/11/04 03:39:28;;;;;;;89.47;31.63;;;8.00;99.90;;;;;;5041325;28;20020;-85
2021/11/04 03:41:56;;;;;;;86.53;32.10;;;8.00;99.90;;;;;;5076100;28;20073;-84
2021/11/04 03:44:25;;;;;;;80.70;31.87;;;8.00;99.90;;;;;;5041391;28;20400;-85
2021/11/04 03:46:53;;;;;;;85.37;31.87;;;8.00;99.90;;;;;;5057995;28;20177;-85
2021/11/04 03:49:20;;;;;;;88.13;32.83;;;8.00;99.90;;;;;;5040628;28;20495;-85
2021/11/04 03:51:49;;;;;;;84.57;32.17;;;8.00;99.90;;;;;;5057920;28;20031;-85
2021/11/04 03:54:24;;;;;;;82.75;30.17;;;7.90;99.90;;;;;;5057867;28;20111;-85
2021/11/04 03:56:51;;;;;;;83.40;32.03;;;7.90;99.90;;;;;;5041226;28;20121;-84
2021/11/04 03:59:17;;;;;;;78.67;29.73;;;7.90;99.90;;;;;;5057589;28;20420;-85
2021/11/04 04:01:44;;;;;;;80.60;31.10;;;7.90;99.90;;;;;;5057527;28;20424;-84
2021/11/04 04:04:10;;;;;;;81.50;30.67;;;7.80;99.90;;;;;;5041234;28;20519;-84
2021/11/04 04:06:36;;;;;;;83.33;30.67;;;7.80;99.90;;;;;;5057885;28;20020;-85
2021/11/04 04:09:04;;;;;;;80.57;30.10;;;7.90;99.90;;;;;;5056993;28;20420;-84
2021/11/04 04:11:31;;;;;;;83.18;31.83;;;7.80;99.90;;;;;;5041159;28;20028;-85
2021/11/04 04:13:57;;;;;;;84.77;32.73;;;7.80;99.90;;;;;;5058122;28;20048;-84
2021/11/04 04:16:23;;;;;;;81.30;32.73;;;7.90;99.90;;;;;;5074313;28;20059;-84
2021/11/04 04:18:49;;;;;;;84.63;32.97;;;7.90;99.90;;;;;;5074346;28;20426;-84
2021/11/04 04:21:16;;;;;;;79.60;32.90;;;7.90;99.90;;;;;;5074418;28;20078;-85
2021/11/04 04:23:42;;;;;;;92.77;34.17;;;7.90;99.90;;;;;;5057687;28;20033;-85
2021/11/04 04:26:08;;;;;;;91.40;34.77;;;7.80;99.90;;;;;;5058485;28;20487;-85
2021/11/04 04:28:34;;;;;;;83.83;32.90;;;7.90;99.90;;;;;;5058207;28;20032;-85
2021/11/04 04:31:00;;;;;;;86.13;34.83;;;7.90;99.90;;;;;;5057497;28;20036;-84
2021/11/04 04:33:26;;;;;;;90.83;35.80;;;7.90;99.90;;;;;;5074555;28;20037;-84
2021/11/04 04:35:52;;;;;;;91.70;36.53;;;7.90;99.90;;;;;;5057569;28;20068;-84
2021/11/04 04:38:18;;;;;;;86.23;33.30;;;7.90;99.90;;;;;;5074860;28;20064;-84
2021/11/04 04:40:44;;;;;;;88.57;34.80;;;7.90;99.90;;;;;;5056986;28;20032;-85
2021/11/04 04:43:10;;;;;;;86.90;34.20;;;7.90;99.90;;;;;;5056121;28;20443;-84
2021/11/04 04:45:36;;;;;;;93.20;34.43;;;8.00;99.90;;;;;;5073636;28;20025;-85
2021/11/04 04:48:02;;;;;;;84.53;34.30;;;7.90;99.90;;;;;;5073250;28;20017;-84
2021/11/04 04:50:28;;;;;;;86.97;32.80;;;7.90;99.90;;;;;;5056686;28;20025;-86
2021/11/04 04:52:54;;;;;;;77.57;32.17;;;7.90;99.90;;;;;;5056008;28;20032;-85
2021/11/04 04:55:19;;;;;;;78.97;31.63;;;8.00;99.90;;;;;;5072659;28;20036;-85
2021/11/04 04:57:45;;;;;;;83.47;34.27;;;8.00;99.90;;;;;;5056548;28;20028;-85
2021/11/04 05:00:12;;;;;;;84.07;31.80;;;8.00;99.90;;;;;;5039136;28;20056;-86
2021/11/04 05:02:39;;;;;;;93.87;34.57;;;8.00;99.90;;;;;;5039961;28;20021;-85
2021/11/04 05:05:06;;;;;;;86.27;32.20;;;8.00;99.90;;;;;;5056938;28;20028;-84
2021/11/04 05:07:32;;;;;;;94.20;34.07;;;8.00;99.90;;;;;;5040366;28;20047;-84
2021/11/04 05:09:57;;;;;;;86.00;32.20;;;8.00;99.90;;;;;;5073332;28;20174;-84
2021/11/04 05:12:23;;;;;;;89.20;32.47;;;8.00;99.90;;;;;;5057053;28;20020;-86
2021/11/04 05:14:49;;;;;;;85.00;33.40;;;8.00;99.90;;;;;;5073367;28;20036;-85
2021/11/04 05:17:15;;;;;;;87.80;30.73;;;8.00;99.90;;;;;;5074717;28;20095;-85
2021/11/04 05:19:40;;;;;;;85.23;32.23;;;8.00;99.90;;;;;;5072060;28;20028;-85
2021/11/04 05:22:06;;;;;;;86.60;32.67;;;8.00;99.90;;;;;;5055418;28;20036;-84
2021/11/04 05:24:34;;;;;;;88.90;31.70;;;7.90;99.90;;;;;;5072125;28;20420;-85
2021/11/04 05:27:03;;;;;;;86.87;31.43;;;8.00;99.90;;;;;;5055628;28;20029;-85
2021/11/04 05:29:30;;;;;;;88.32;32.00;;;8.00;99.90;;;;;;5073078;28;20040;-85
2021/11/04 05:32:02;;;;;;;103.43;32.97;;;8.00;99.90;;;;;;5055908;28;20129;-84
2021/11/04 05:34:29;;;;;;;94.73;32.87;;;8.00;99.90;;;;;;5039928;28;20397;-85
2021/11/04 05:36:55;;;;;;;91.67;34.57;;;8.00;99.90;;;;;;5055805;28;20039;-86
2021/11/04 05:39:20;;;;;;;90.40;33.27;;;8.00;99.90;;;;;;5072015;28;20037;-85
2021/11/04 05:41:46;;;;;;;95.53;33.83;;;8.00;99.90;;;;;;5072831;28;20074;-85
2021/11/04 05:44:12;;;;;;;111.23;36.73;;;8.00;99.90;;;;;;5072956;28;20061;-85
2021/11/04 05:46:37;;;;;;;104.43;35.80;;;8.00;99.90;;;;;;5054608;28;20028;-86
2021/11/04 05:49:03;;;;;;;87.47;31.97;;;8.00;99.90;;;;;;5071325;28;20030;-85
2021/11/04 05:51:29;;;;;;;86.53;30.93;;;8.00;99.90;;;;;;5072211;28;20392;-84
2021/11/04 05:53:55;;;;;;;83.97;30.57;;;8.00;99.90;;;;;;5072723;28;20564;-85
2021/11/04 05:56:21;;;;;;;82.90;30.37;;;8.00;99.90;;;;;;5040469;28;20503;-85
2021/11/04 05:58:47;;;;;;;88.70;30.90;;;8.00;99.90;;;;;;5075139;28;20024;-85
2021/11/04 06:01:12;;;;;;;77.63;28.93;;;8.00;99.90;;;;;;5072531;28;20098;-85
2021/11/04 06:03:38;;;;;;;81.27;30.50;;;8.00;99.90;;;;;;5056564;28;20033;-85
2021/11/04 06:06:04;;;;;;;86.67;29.47;;;8.00;99.90;;;;;;5075479;28;20032;-86
2021/11/04 06:08:29;;;;;;;90.87;31.53;;;8.00;99.90;;;;;;5074079;28;20031;-85
2021/11/04 06:10:55;;;;;;;84.20;31.10;;;8.00;99.90;;;;;;5073463;28;20444;-85
2021/11/04 06:13:21;;;;;;;88.83;31.57;;;8.00;99.90;;;;;;5073479;28;20463;-85
2021/11/04 06:15:47;;;;;;;99.53;33.07;;;8.00;99.90;;;;;;5073543;28;20033;-85
2021/11/04 06:18:13;;;;;;;85.70;30.37;;;8.10;99.90;;;;;;5073482;28;20033;-86
2021/11/04 06:20:38;;;;;;;83.57;28.90;;;8.00;99.90;;;;;;5056621;28;20094;-85
2021/11/04 06:23:04;;;;;;;81.33;29.50;;;8.00;99.90;;;;;;5073661;28;20033;-84
2021/11/04 06:25:30;;;;;;;80.17;28.37;;;8.00;99.90;;;;;;5073808;28;20025;-86
2021/11/04 06:27:55;;;;;;;83.93;28.90;;;8.00;99.90;;;;;;5057227;28;20028;-85
2021/11/04 06:30:21;;;;;;;75.53;26.70;;;7.90;99.90;;;;;;5057176;28;20024;-85
2021/11/04 06:32:47;;;;;;;77.00;26.47;;;7.90;99.90;;;;;;5074886;28;20470;-85
2021/11/04 06:35:13;;;;;;;80.43;27.03;;;7.90;99.90;;;;;;5074213;28;20079;-85
2021/11/04 06:37:39;;;;;;;78.63;26.23;;;7.80;99.90;;;;;;5075898;28;20193;-85
2021/11/04 06:40:08;;;;;;;78.63;26.47;;;7.80;99.90;;;;;;5041016;28;20125;-85
2021/11/04 06:42:35;;;;;;;74.72;26.63;;;7.80;99.90;;;;;;5076499;28;20032;-84
2021/11/04 06:45:00;;;;;;;81.17;26.60;;;7.80;99.90;;;;;;5076201;28;20027;-85
2021/11/04 06:47:46;;;;;;;86.77;27.47;;;7.90;99.90;;;;;;5074538;28;20111;-85
2021/11/04 06:50:12;;;;;;;77.77;27.57;;;7.80;99.90;;;;;;5040731;28;20035;-85
2021/11/04 06:52:46;;;;;;;88.53;26.37;;;7.80;99.90;;;;;;5041173;28;20029;-84
2021/11/04 06:55:14;;;;;;;81.30;26.97;;;7.80;99.90;;;;;;5041828;28;20047;-85
2021/11/04 06:57:42;;;;;;;83.53;27.87;;;7.80;99.90;;;;;;5076770;28;20033;-85
2021/11/04 07:00:10;;;;;;;77.07;26.10;;;7.80;99.90;;;;;;5045930;28;20060;-85
2021/11/04 07:02:38;;;;;;;79.23;26.60;;;7.80;99.90;;;;;;5063086;28;20404;-86
2021/11/04 07:05:06;;;;;;;70.00;25.23;;;7.80;99.90;;;;;;5046880;28;20105;-86
2021/11/04 07:07:42;;;;;;;76.03;28.07;;;7.70;99.90;;;;;;5062931;28;20032;-85
2021/11/04 07:10:09;;;;;;;72.83;26.77;;;7.70;99.90;;;;;;5061769;28;20532;-85
2021/11/04 07:12:35;;;;;;;77.73;26.97;;;7.70;99.90;;;;;;5045567;28;20420;-86
2021/11/04 07:15:02;;;;;;;69.20;23.50;;;7.60;99.90;;;;;;5079966;23;20048;-82
2021/11/04 07:17:28;;;;;;;68.67;23.47;;;7.60;99.90;;;;;;5058579;28;20060;-83
2021/11/04 07:19:54;;;;;;;68.17;24.97;;;7.60;99.90;;;;;;5057332;28;20059;-82
2021/11/04 07:22:36;;;;;;;69.67;25.53;;;7.60;99.90;;;;;;5075940;28;20032;-83
2021/11/04 07:25:06;;;;;;;65.10;23.43;;;7.60;99.90;;;;;;5057617;28;20056;-83
2021/11/04 07:27:43;;;;;;;65.13;23.77;;;7.60;99.90;;;;;;5057875;28;20028;-83
2021/11/04 07:30:12;;;;;;;68.93;23.60;;;7.60;99.90;;;;;;5075130;28;20027;-83
2021/11/04 07:32:46;;;;;;;69.78;24.77;;;7.60;99.90;;;;;;5041160;28;20033;-82
2021/11/04 07:35:15;;;;;;;67.70;24.40;;;7.60;99.90;;;;;;5041242;28;20036;-82
2021/11/04 07:37:43;;;;;;;75.95;26.05;;;7.60;99.90;;;;;;5075921;28;20423;-82
2021/11/04 07:40:09;;;;;;;70.07;25.23;;;7.60;99.90;;;;;;5057410;28;20032;-82
2021/11/04 07:42:39;;;;;;;67.53;24.63;;;7.70;99.90;;;;;;5076097;28;20029;-82
2021/11/04 07:45:05;;;;;;;66.93;23.83;;;7.60;99.90;;;;;;5076133;28;20098;-82
2021/11/04 07:47:32;;;;;;;71.97;24.10;;;7.60;99.90;;;;;;5057803;28;20040;-82
2021/11/04 07:49:57;;;;;;;68.13;24.30;;;7.70;99.90;;;;;;5056997;28;20082;-83
2021/11/04 07:52:23;;;;;;;70.27;23.67;;;7.60;99.90;;;;;;5057800;28;20088;-82
2021/11/04 07:54:49;;;;;;;70.97;26.00;;;7.70;99.90;;;;;;5075859;28;20036;-82
2021/11/04 07:57:15;;;;;;;72.03;24.47;;;7.70;99.90;;;;;;5074241;28;20043;-83
2021/11/04 07:59:40;;;;;;;82.87;26.60;;;7.70;99.90;;;;;;5056677;28;20038;-83
2021/11/04 08:02:07;;;;;;;74.57;25.63;;;7.70;99.90;;;;;;5073894;28;20078;-82
2021/11/04 08:04:32;;;;;;;75.93;26.17;;;7.80;99.90;;;;;;5073629;28;20477;-82
2021/11/04 08:06:58;;;;;;;74.83;26.77;;;7.80;99.90;;;;;;5074170;28;20036;-83
2021/11/04 08:09:25;;;;;;;94.53;36.43;;;7.90;99.90;;;;;;5074079;28;20483;-83
2021/11/04 08:11:51;;;;;;;78.63;29.93;;;7.90;99.90;;;;;;5056923;28;20481;-82
2021/11/04 08:14:16;;;;;;;81.00;29.77;;;7.90;99.90;;;;;;5073743;28;20047;-82
2021/11/04 08:16:42;;;;;;;81.37;29.43;;;8.00;99.90;;;;;;5057577;28;20029;-83
2021/11/04 08:19:08;;;;;;;72.23;27.57;;;8.00;99.90;;;;;;5073232;28;20037;-83
2021/11/04 08:21:34;;;;;;;71.73;26.93;;;8.00;99.90;;;;;;5073704;28;20078;-83
2021/11/04 08:23:59;;;;;;;66.00;25.27;;;8.10;99.90;;;;;;5073921;28;20123;-83
2021/11/04 08:26:25;;;;;;;63.90;25.27;;;8.10;99.90;;;;;;5075118;28;20174;-82
2021/11/04 08:28:52;;;;;;;65.33;26.10;;;8.10;99.90;;;;;;5075169;28;20032;-83
2021/11/04 08:31:19;;;;;;;61.77;26.03;;;8.10;99.90;;;;;;5039978;28;20037;-83
2021/11/04 08:33:44;;;;;;;62.97;25.80;;;8.10;99.90;;;;;;5075092;28;20020;-82
2021/11/04 08:36:10;;;;;;;58.80;23.23;;;8.10;99.90;;;;;;5076079;28;20595;-83
2021/11/04 08:38:36;;;;;;;56.97;23.80;;;8.10;99.90;;;;;;5074300;28;20065;-84
2021/11/04 08:41:03;;;;;;;57.50;23.27;;;8.10;99.90;;;;;;5056871;28;20082;-83
2021/11/04 08:43:28;;;;;;;54.77;23.33;;;8.10;99.90;;;;;;5073957;28;20078;-83
2021/11/04 08:45:54;;;;;;;53.83;21.10;;;8.10;99.90;;;;;;5041172;28;20024;-83
2021/11/04 08:48:20;;;;;;;58.00;23.57;;;8.10;99.90;;;;;;5057887;28;20025;-83
2021/11/04 08:50:48;;;;;;;54.90;22.60;;;8.10;99.90;;;;;;5074016;28;20036;-83
2021/11/04 08:53:14;;;;;;;54.40;22.93;;;8.10;99.90;;;;;;5061290;28;20032;-82
2021/11/04 08:55:41;;;;;;;49.60;21.37;;;8.00;99.90;;;;;;5074438;28;20059;-83
2021/11/04 08:58:07;;;;;;;49.83;21.93;;;8.10;99.90;;;;;;5075212;28;20107;-83
2021/11/04 09:00:33;;;;;;;53.10;23.07;;;8.00;99.90;;;;;;5040403;28;20488;-83
2021/11/04 09:03:00;;;;;;;53.10;23.90;;;8.10;99.90;;;;;;5075448;28;20489;-83
2021/11/04 09:05:26;;;;;;;54.30;23.97;;;8.00;99.90;;;;;;5057460;28;20035;-83
2021/11/04 09:07:51;;;;;;;49.70;22.60;;;8.00;99.90;;;;;;5075341;28;20021;-83
2021/11/04 09:10:21;;;;;;;51.27;23.50;;;8.00;99.90;;;;;;5074912;28;20054;-83
2021/11/04 09:12:47;;;;;;;48.63;21.43;;;7.90;99.90;;;;;;5075692;28;20032;-84
2021/11/04 09:15:13;;;;;;;44.37;21.00;;;8.00;99.90;;;;;;5072852;28;20045;-83
2021/11/04 09:17:41;;;;;;;47.13;21.90;;;8.00;99.90;;;;;;5075164;28;20098;-84
2021/11/04 09:20:11;;;;;;;48.07;21.53;;;7.90;99.90;;;;;;5057355;28;20111;-83
2021/11/04 09:22:37;;;;;;;44.90;20.57;;;8.00;99.90;;;;;;5074977;28;20449;-83
2021/11/04 09:25:04;;;;;;;44.03;20.87;;;8.00;99.90;;;;;;5073096;28;20469;-83
2021/11/04 09:27:30;;;;;;;54.00;23.13;;;8.00;99.90;;;;;;5074600;28;20028;-83
2021/11/04 09:29:56;;;;;;;50.50;23.50;;;8.00;99.90;;;;;;5039755;28;20572;-83
2021/11/04 09:32:23;;;;;;;52.77;24.07;;;8.10;99.90;;;;;;5073016;28;20075;-83
2021/11/04 09:34:49;;;;;;;48.80;23.70;;;8.00;99.90;;;;;;5073053;28;20400;-83
2021/11/04 09:37:17;;;;;;;45.97;22.10;;;8.10;99.90;;;;;;5072620;28;20028;-82
2021/11/04 09:39:43;;;;;;;47.23;21.80;;;8.10;99.90;;;;;;5072601;28;20481;-83
2021/11/04 09:42:09;;;;;;;48.33;22.30;;;8.10;99.90;;;;;;5072364;28;20409;-82
2021/11/04 09:44:34;;;;;;;43.03;20.53;;;8.10;99.90;;;;;;5072785;28;20492;-83
2021/11/04 09:47:00;;;;;;;46.20;22.00;;;8.10;99.90;;;;;;5073608;28;20016;-82
2021/11/04 09:49:29;;;;;;;44.53;21.90;;;8.10;99.90;;;;;;5054941;28;20025;-82
2021/11/04 09:51:56;;;;;;;48.88;24.15;;;8.10;99.90;;;;;;5073016;28;20450;-83
2021/11/04 09:54:24;;;;;;;50.70;24.13;;;8.10;99.90;;;;;;5073139;28;20586;-82
2021/11/04 09:56:50;;;;;;;51.43;23.53;;;8.10;99.90;;;;;;5038680;28;20051;-83
2021/11/04 09:59:16;;;;;;;47.37;23.17;;;8.20;99.90;;;;;;5071430;28;20024;-83
2021/11/04 10:01:49;;;;;;;52.90;24.80;;;8.20;99.90;;;;;;5072664;28;20492;-82
2021/11/04 10:04:29;;;;;;;51.10;23.97;;;8.20;99.90;;;;;;5071528;28;20071;-83
2021/11/04 10:06:56;;;;;;;50.57;24.47;;;8.30;99.90;;;;;;5072381;28;20035;-82
2021/11/04 10:09:26;;;;;;;52.60;25.63;;;8.30;99.90;;;;;;5070656;28;20078;-82
2021/11/04 10:11:54;;;;;;;48.33;23.63;;;8.30;99.90;;;;;;5072222;28;20031;-82
2021/11/04 10:14:20;;;;;;;49.80;23.27;;;8.40;99.90;;;;;;5071000;28;20503;-82
2021/11/04 10:16:46;;;;;;;49.23;24.07;;;8.40;99.90;;;;;;5054266;28;20044;-82
2021/11/04 10:19:14;;;;;;;50.70;24.50;;;8.40;99.90;;;;;;5070419;28;20127;-82
2021/11/04 10:21:46;;;;;;;50.20;24.87;;;8.40;99.90;;;;;;5072063;28;20029;-82
2021/11/04 10:24:20;;;;;;;45.67;23.13;;;8.40;99.90;;;;;;5054098;28;20029;-82
2021/11/04 10:26:52;;;;;;;48.03;24.37;;;8.40;99.90;;;;;;5071972;28;20028;-82
2021/11/04 10:29:18;;;;;;;47.00;22.97;;;8.40;99.90;;;;;;5071527;28;20477;-82
2021/11/04 10:31:49;;;;;;;50.67;24.43;;;8.40;99.90;;;;;;5070586;28;20032;-82
2021/11/04 10:34:28;;;;;;;52.40;23.83;;;8.40;99.90;;;;;;5056316;28;20123;-82
2021/11/04 10:37:18;;;;;;;45.45;22.38;;;8.40;99.90;;;;;;5074768;28;20033;-82
2021/11/04 10:39:46;;;;;;;45.87;22.43;;;8.40;99.90;;;;;;5057477;28;20107;-83
2021/11/04 10:42:12;;;;;;;48.67;23.20;;;8.40;99.90;;;;;;5075343;28;20033;-82
2021/11/04 10:44:38;;;;;;;46.70;23.07;;;8.40;99.90;;;;;;5057753;28;20090;-82
2021/11/04 10:47:04;;;;;;;48.90;23.47;;;8.40;99.90;;;;;;5074570;28;20031;-82
2021/11/04 10:49:41;;;;;;;49.60;23.10;;;8.40;99.90;;;;;;5074121;28;20025;-82
2021/11/04 10:52:09;;;;;;;49.40;23.77;;;8.40;99.90;;;;;;5058351;28;20472;-82
2021/11/04 10:54:48;;;;;;;54.57;24.83;;;8.30;99.90;;;;;;5074412;28;20036;-82
2021/11/04 10:57:34;;;;;;;46.90;23.77;;;8.40;99.90;;;;;;5075859;28;20047;-83
2021/11/04 11:00:21;;;;;;;49.30;23.70;;;8.40;99.90;;;;;;5057379;28;20056;-82
2021/11/04 11:03:04;;;;;;;48.73;23.60;;;8.40;99.90;;;;;;5057488;28;20037;-83
2021/11/04 11:05:36;;;;;;;50.60;24.47;;;8.40;99.90;;;;;;5074154;28;20036;-82
2021/11/04 11:08:08;;;;;;;46.30;24.30;;;8.50;99.90;;;;;;5075426;28;20071;-82
2021/11/04 11:10:40;;;;;;;48.70;24.23;;;8.50;99.90;;;;;;5056675;28;20028;-82
2021/11/04 11:13:07;;;;;;;48.90;24.27;;;8.50;99.90;;;;;;5057411;28;20485;-82
2021/11/04 11:15:36;;;;;;;47.90;24.27;;;8.60;99.90;;;;;;5074258;28;20042;-82
2021/11/04 11:18:05;;;;;;;48.60;23.58;;;8.60;99.90;;;;;;5041380;28;20378;-83
2021/11/04 11:20:32;;;;;;;53.92;25.98;;;8.60;99.90;;;;;;5057610;28;20037;-82
2021/11/04 11:23:00;;;;;;;47.87;23.63;;;8.60;99.90;;;;;;5058556;28;20450;-82
2021/11/04 11:25:25;;;;;;;54.23;24.90;;;8.60;99.90;;;;;;5074472;28;20417;-82
2021/11/04 11:27:53;;;;;;;47.57;24.97;;;8.60;99.90;;;;;;5075475;28;20028;-82
2021/11/04 11:30:19;;;;;;;47.47;23.10;;;8.60;99.90;;;;;;5057164;28;20020;-83
2021/11/04 11:32:49;;;;;;;50.30;25.27;;;8.70;99.90;;;;;;5057356;28;20067;-82
2021/11/04 11:35:22;;;;;;;46.67;23.93;;;8.70;99.90;;;;;;5075100;28;20036;-82
2021/11/04 11:38:08;;;;;;;45.93;23.70;;;8.70;99.90;;;;;;5057928;28;20499;-82
2021/11/04 11:40:34;;;;;;;43.40;24.20;;;8.80;99.90;;;;;;5056785;28;20511;-82
2021/11/04 11:43:09;;;;;;;39.17;21.60;;;8.80;99.90;;;;;;5074114;28;20064;-83
2021/11/04 11:45:42;;;;;;;45.10;22.40;;;8.90;99.90;;;;;;5056417;28;20146;-82
2021/11/04 11:48:22;;;;;;;43.57;23.80;;;8.90;99.90;;;;;;5075763;28;20024;-82
2021/11/04 11:50:50;;;;;;;47.67;24.40;;;8.90;99.90;;;;;;5057811;28;20040;-83
2021/11/04 11:53:38;;;;;;;46.27;24.13;;;9.00;99.90;;;;;;5074636;28;20115;-82
2021/11/04 11:56:06;;;;;;;44.10;24.03;;;9.00;99.90;;;;;;5074468;28;20503;-82
2021/11/04 11:58:43;;;;;;;45.03;23.53;;;9.10;99.90;;;;;;5058035;28;20037;-82
2021/11/04 12:01:12;;;;;;;42.77;22.47;;;9.20;99.90;;;;;;5075813;28;20308;-82
2021/11/04 12:03:39;;;;;;;;;;;9.10;99.90;;;;;;5042304;28;20040;-83
2021/11/04 12:06:14;;;;;;;42.53;21.93;;;9.10;99.90;;;;;;5076433;28;19908;-83
2021/11/04 12:08:47;;;;;;;35.37;19.93;;;9.20;99.90;;;;;;5057661;28;20029;-82
2021/11/04 12:11:33;;;;;;;36.17;21.17;;;9.20;99.90;;;;;;5075399;28;20031;-83
2021/11/04 12:14:24;;;;;;;34.73;19.77;;;9.30;99.90;;;;;;5047038;28;20111;-83
2021/11/04 12:17:15;;;;;;;35.10;20.03;;;9.30;99.90;;;;;;5075555;28;20023;-83
2021/11/04 12:19:50;;;;;;;33.33;20.07;;;9.20;99.90;;;;;;5070012;28;20116;-82
2021/11/04 12:22:26;;;;;;;33.90;20.37;;;9.30;99.90;;;;;;5074241;28;20127;-81
2021/11/04 12:24:59;;;;;;;37.53;21.97;;;9.30;99.90;;;;;;5075365;28;20032;-83
2021/11/04 12:27:44;;;;;;;35.27;20.17;;;9.30;99.90;;;;;;5075536;28;20063;-83
2021/11/04 12:30:15;;;;;;;35.63;20.30;;;9.30;99.90;;;;;;5073754;28;20107;-83
2021/11/04 12:32:40;;;;;;;37.47;22.00;;;9.20;99.90;;;;;;5074005;28;20032;-83
2021/11/04 12:35:07;;;;;;;39.17;22.47;;;9.20;99.90;;;;;;5074141;28;20496;-82
2021/11/04 12:37:34;;;;;;;40.60;23.53;;;9.20;99.90;;;;;;5057521;28;20078;-83
2021/11/04 12:40:06;;;;;;;40.50;23.37;;;9.20;99.90;;;;;;5040055;28;20035;-82
2021/11/04 12:42:32;;;;;;;41.23;24.00;;;9.20;99.90;;;;;;5057019;28;20029;-83